createdAt,value
2023-04-25T00:01:48.713Z,10.66
2023-04-25T00:04:16.927Z,10.71
2023-04-25T00:06:45.005Z,10.66
2023-04-25T00:09:12.974Z,10.53
2023-04-25T00:11:42.819Z,10.56
2023-04-25T00:14:11.001Z,10.72
2023-04-25T00:16:39.075Z,10.79
2023-04-25T00:19:07.453Z,10.74
2023-04-25T00:21:36.447Z,10.72
2023-04-25T00:24:04.687Z,10.64
2023-04-25T00:26:32.618Z,10.20
2023-04-25T00:29:01.905Z,10.12
2023-04-25T00:31:30.743Z,10.14
2023-04-25T00:33:58.811Z,10.26
2023-04-25T00:36:29.666Z,10.39
2023-04-25T00:38:57.949Z,10.35
2023-04-25T00:41:27.916Z,10.44
2023-04-25T00:43:57.968Z,10.39
2023-04-25T00:46:27.655Z,10.44
2023-04-25T00:48:55.702Z,10.43
2023-04-25T00:51:24.251Z,10.36
2023-04-25T00:53:52.567Z,10.54
2023-04-25T00:56:21.577Z,10.47
2023-04-25T00:58:50.447Z,10.53
2023-04-25T01:01:18.839Z,10.53
2023-04-25T01:03:48.891Z,10.47
2023-04-25T01:06:17.178Z,10.54
2023-04-25T01:08:45.269Z,10.56
2023-04-25T01:11:13.081Z,10.55
2023-04-25T01:13:41.001Z,10.56
2023-04-25T01:16:09.232Z,10.61
2023-04-25T01:18:38.275Z,10.67
2023-04-25T01:21:11.714Z,10.64
2023-04-25T01:23:41.210Z,10.60
2023-04-25T01:26:10.992Z,10.49
2023-04-25T01:28:42.225Z,10.51
2023-04-25T01:31:11.575Z,10.55
2023-04-25T01:33:40.079Z,10.51
2023-04-25T01:36:09.979Z,10.49
2023-04-25T01:38:38.071Z,10.46
2023-04-25T01:41:07.204Z,10.45
2023-04-25T01:43:35.414Z,10.48
2023-04-25T01:46:03.702Z,10.47
2023-04-25T01:48:31.685Z,10.48
2023-04-25T01:51:01.228Z,10.41
2023-04-25T01:53:31.726Z,10.36
2023-04-25T01:56:00.798Z,10.34
2023-04-25T01:58:33.757Z,10.39
2023-04-25T02:01:04.751Z,10.38
2023-04-25T02:03:40.625Z,10.18
2023-04-25T02:06:14.328Z,10.17
2023-04-25T02:08:46.713Z,10.13
2023-04-25T02:11:16.275Z,10.07
2023-04-25T02:13:50.448Z,10.01
2023-04-25T02:16:36.762Z,9.99
2023-04-25T02:19:05.226Z,9.84
2023-04-25T02:21:33.036Z,9.90
2023-04-25T02:24:02.408Z,9.85
2023-04-25T02:26:31.036Z,9.80
2023-04-25T02:28:59.228Z,9.73
2023-04-25T02:31:28.107Z,9.77
2023-04-25T02:33:56.726Z,9.78
2023-04-25T02:36:25.048Z,9.66
2023-04-25T02:38:52.951Z,9.61
2023-04-25T02:41:23.802Z,9.64
2023-04-25T02:43:52.011Z,9.72
2023-04-25T02:46:32.056Z,9.62
2023-04-25T02:49:06.180Z,9.77
2023-04-25T02:51:34.668Z,9.80
2023-04-25T02:54:02.756Z,9.75
2023-04-25T02:56:32.697Z,9.84
2023-04-25T02:59:01.011Z,9.86
2023-04-25T03:01:29.592Z,9.83
2023-04-25T03:03:57.760Z,9.77
2023-04-25T03:06:26.378Z,9.79
2023-04-25T03:08:54.326Z,9.82
2023-04-25T03:11:22.370Z,9.91
2023-04-25T03:13:51.850Z,9.92
2023-04-25T03:16:20.927Z,9.89
2023-04-25T03:18:48.862Z,9.91
2023-04-25T03:21:17.114Z,9.92
2023-04-25T03:23:45.646Z,9.82
2023-04-25T03:26:15.974Z,9.66
2023-04-25T03:28:44.575Z,9.63
2023-04-25T03:31:13.802Z,9.59
2023-04-25T03:33:41.751Z,9.50
2023-04-25T03:36:10.578Z,9.62
2023-04-25T03:38:38.462Z,9.66
2023-04-25T03:41:07.943Z,9.62
2023-04-25T03:43:54.192Z,9.55
2023-04-25T03:46:23.920Z,9.55
2023-04-25T03:48:51.999Z,9.60
2023-04-25T03:51:24.056Z,9.55
2023-04-25T03:53:52.110Z,9.51
2023-04-25T03:56:32.440Z,9.59
2023-04-25T03:59:07.438Z,9.50
2023-04-25T04:01:37.468Z,9.58
2023-04-25T04:04:06.043Z,9.64
2023-04-25T04:06:34.965Z,9.66
2023-04-25T04:09:17.830Z,9.73
2023-04-25T04:11:46.247Z,9.60
2023-04-25T04:14:14.001Z,9.69
2023-04-25T04:16:47.328Z,9.71
2023-04-25T04:19:15.522Z,9.72
2023-04-25T04:21:48.815Z,9.75
2023-04-25T04:24:17.747Z,9.75
2023-04-25T04:26:54.001Z,9.63
2023-04-25T04:29:32.165Z,9.72
2023-04-25T04:32:28.834Z,9.75
2023-04-25T04:34:56.993Z,9.78
2023-04-25T04:37:26.337Z,9.66
2023-04-25T04:39:54.281Z,9.48
2023-04-25T04:42:30.248Z,9.61
2023-04-25T04:45:17.211Z,9.65
2023-04-25T04:48:06.589Z,9.57
2023-04-25T04:50:56.313Z,9.60
2023-04-25T04:53:46.450Z,9.61
2023-04-25T04:56:37.106Z,9.65
2023-04-25T04:59:19.416Z,9.72
2023-04-25T05:02:06.004Z,9.42
2023-04-25T05:04:59.698Z,9.32
2023-04-25T05:07:37.599Z,9.00
2023-04-25T05:10:26.433Z,8.90
2023-04-25T05:13:12.948Z,8.64
2023-04-25T05:15:57.877Z,8.96
2023-04-25T05:18:37.455Z,8.77
2023-04-25T05:21:20.156Z,9.05
2023-04-25T05:24:09.018Z,9.16
2023-04-25T05:27:03.353Z,9.25
2023-04-25T05:29:47.257Z,9.36
2023-04-25T05:32:38.400Z,9.43
2023-04-25T05:35:08.039Z,9.29
2023-04-25T05:37:45.004Z,9.38
2023-04-25T05:40:15.331Z,9.42
2023-04-25T05:42:59.419Z,9.35
2023-04-25T05:45:52.108Z,9.43
2023-04-25T05:48:32.298Z,9.50
2023-04-25T05:51:11.419Z,9.50
2023-04-25T05:53:50.010Z,9.54
2023-04-25T05:56:18.253Z,9.54
2023-04-25T05:58:48.220Z,9.34
2023-04-25T06:01:16.175Z,9.25
2023-04-25T06:03:45.927Z,9.17
2023-04-25T06:06:14.090Z,9.22
2023-04-25T06:08:42.469Z,9.27
2023-04-25T06:11:14.390Z,9.35
2023-04-25T06:13:42.904Z,9.38
2023-04-25T06:16:11.277Z,9.49
2023-04-25T06:18:39.732Z,9.48
2023-04-25T06:21:07.668Z,9.51
2023-04-25T06:23:35.825Z,9.43
2023-04-25T06:26:06.077Z,9.36
2023-04-25T06:28:36.926Z,9.44
2023-04-25T06:31:05.000Z,9.44
2023-04-25T06:33:33.290Z,9.54
2023-04-25T06:36:01.559Z,9.53
2023-04-25T06:38:30.274Z,9.62
2023-04-25T06:40:59.066Z,9.58
2023-04-25T06:43:33.892Z,9.53
2023-04-25T06:46:21.866Z,9.73
2023-04-25T06:48:51.254Z,9.55
2023-04-25T06:51:23.565Z,9.49
2023-04-25T06:53:54.121Z,9.62
2023-04-25T06:56:30.850Z,9.30
2023-04-25T06:59:12.930Z,9.47
2023-04-25T07:01:43.623Z,9.49
2023-04-25T07:04:20.840Z,9.66
2023-04-25T07:06:56.368Z,9.67
2023-04-25T07:09:34.806Z,9.60
2023-04-25T07:12:03.808Z,9.78
2023-04-25T07:14:32.107Z,9.60
2023-04-25T07:17:04.028Z,9.76
2023-04-25T07:19:34.139Z,9.74
2023-04-25T07:22:03.661Z,9.73
2023-04-25T07:24:33.553Z,9.70
2023-04-25T07:27:02.462Z,9.58
2023-04-25T07:29:49.142Z,9.62
2023-04-25T07:32:18.647Z,9.59
2023-04-25T07:34:46.497Z,9.65
2023-04-25T07:37:15.354Z,9.69
2023-04-25T07:39:57.998Z,9.70
2023-04-25T07:42:25.967Z,9.38
2023-04-25T07:44:54.044Z,9.42
2023-04-25T07:47:25.126Z,9.33
2023-04-25T07:49:54.151Z,9.48
2023-04-25T07:52:23.113Z,9.36
2023-04-25T07:54:56.612Z,9.65
2023-04-25T07:57:32.411Z,9.37
2023-04-25T08:00:01.044Z,9.47
2023-04-25T08:02:32.381Z,9.51
2023-04-25T08:05:01.467Z,9.49
2023-04-25T08:07:31.642Z,9.59
2023-04-25T08:10:05.358Z,9.11
2023-04-25T08:12:36.226Z,8.64
2023-04-25T08:15:08.513Z,8.18
2023-04-25T08:17:41.493Z,8.01
2023-04-25T08:20:11.232Z,8.11
2023-04-25T08:22:39.418Z,8.33
2023-04-25T08:25:34.068Z,8.09
2023-04-25T08:28:04.152Z,8.40
2023-04-25T08:30:33.067Z,8.56
2023-04-25T08:33:03.113Z,8.69
2023-04-25T08:35:50.533Z,8.66
2023-04-25T08:38:19.705Z,8.77
2023-04-25T08:40:53.387Z,8.88
2023-04-25T08:43:22.708Z,9.02
2023-04-25T08:45:50.614Z,9.07
2023-04-25T08:48:36.772Z,9.18
2023-04-25T08:53:43.869Z,9.28
2023-04-25T08:56:15.422Z,9.27
2023-04-25T08:58:43.600Z,9.45
2023-04-25T09:01:12.067Z,9.60
2023-04-25T09:03:50.584Z,9.47
2023-04-25T09:06:21.424Z,9.52
2023-04-25T09:08:53.122Z,9.73
2023-04-25T09:11:23.509Z,9.79
2023-04-25T09:14:13.524Z,9.83
2023-04-25T09:17:01.920Z,9.76
2023-04-25T09:20:12.431Z,9.88
2023-04-25T09:22:41.434Z,9.94
2023-04-25T09:25:15.487Z,9.93
2023-04-25T09:27:55.611Z,9.94
2023-04-25T09:30:33.087Z,9.71
2023-04-25T09:33:08.802Z,9.92
2023-04-25T09:35:40.786Z,9.87
2023-04-25T09:38:13.177Z,9.73
2023-04-25T09:41:02.777Z,9.73
2023-04-25T09:43:41.885Z,9.72
2023-04-25T09:46:12.240Z,9.79
2023-04-25T09:48:51.449Z,9.95
2023-04-25T09:51:28.353Z,9.94
2023-04-25T09:53:58.083Z,10.04
2023-04-25T09:56:53.159Z,9.99
2023-04-25T09:59:23.951Z,10.15
2023-04-25T10:01:52.354Z,9.96
2023-04-25T10:04:33.964Z,10.07
2023-04-25T10:07:07.919Z,9.98
2023-04-25T10:09:40.450Z,10.03
2023-04-25T10:12:09.168Z,10.23
2023-04-25T10:14:37.102Z,9.84
2023-04-25T10:17:05.771Z,9.75
2023-04-25T10:19:34.775Z,9.64
2023-04-25T10:22:13.994Z,9.71
2023-04-25T10:24:43.126Z,9.82
2023-04-25T10:27:11.473Z,9.95
2023-04-25T10:29:39.544Z,10.11
2023-04-25T10:32:07.495Z,10.28
2023-04-25T10:34:42.981Z,10.40
2023-04-25T10:37:12.990Z,10.50
2023-04-25T10:39:42.424Z,10.61
2023-04-25T10:42:10.914Z,10.70
2023-04-25T10:44:40.329Z,10.45
2023-04-25T10:47:10.400Z,9.90
2023-04-25T10:49:44.344Z,9.80
2023-04-25T10:52:19.106Z,9.73
2023-04-25T10:54:52.356Z,9.76
2023-04-25T10:57:31.124Z,9.96
2023-04-25T11:00:07.399Z,10.08
2023-04-25T11:02:40.090Z,10.15
2023-04-25T11:05:09.074Z,10.20
2023-04-25T11:07:50.276Z,10.41
2023-04-25T11:10:27.647Z,10.30
2023-04-25T11:12:55.750Z,10.46
2023-04-25T11:15:24.960Z,10.54
2023-04-25T11:17:53.438Z,10.38
2023-04-25T11:20:21.845Z,10.19
2023-04-25T11:22:52.790Z,10.25
2023-04-25T11:25:22.080Z,10.36
2023-04-25T11:27:53.489Z,10.53
2023-04-25T11:30:23.097Z,10.68
2023-04-25T11:32:51.290Z,10.64
2023-04-25T11:35:19.228Z,10.47
2023-04-25T11:37:47.101Z,10.60
2023-04-25T11:40:16.620Z,10.74
2023-04-25T11:42:46.662Z,10.60
2023-04-25T11:45:15.200Z,10.54
2023-04-25T11:47:43.471Z,10.48
2023-04-25T11:50:12.568Z,10.55
2023-04-25T11:52:41.530Z,10.77
2023-04-25T11:55:11.658Z,10.95
2023-04-25T11:57:42.322Z,10.85
2023-04-25T12:00:15.845Z,10.75
2023-04-25T12:02:49.025Z,10.94
2023-04-25T12:07:49.114Z,11.17
2023-04-25T12:10:21.359Z,11.33
2023-04-25T12:12:50.888Z,11.23
2023-04-25T12:15:21.373Z,11.04
2023-04-25T12:17:50.772Z,10.99
2023-04-25T12:20:20.712Z,11.02
2023-04-25T12:22:49.931Z,10.99
2023-04-25T12:25:39.406Z,11.21
2023-04-25T12:28:16.430Z,11.05
2023-04-25T12:30:58.856Z,11.16
2023-04-25T12:33:28.185Z,10.82
2023-04-25T12:35:56.956Z,10.85
2023-04-25T12:38:30.359Z,11.02
2023-04-25T12:40:58.564Z,10.90
2023-04-25T12:43:28.482Z,10.80
2023-04-25T12:45:57.793Z,10.67
2023-04-25T12:48:26.183Z,10.73
2023-04-25T12:50:54.712Z,10.95
2023-04-25T12:53:23.692Z,11.03
2023-04-25T12:55:52.803Z,10.97
2023-04-25T12:58:21.614Z,10.90
2023-04-25T13:00:51.015Z,10.93
2023-04-25T13:03:19.819Z,11.29
2023-04-25T13:05:48.085Z,11.52
2023-04-25T13:08:16.383Z,11.45
2023-04-25T13:10:44.719Z,11.52
2023-04-25T13:13:12.599Z,11.80
2023-04-25T13:15:40.625Z,12.05
2023-04-25T13:18:10.286Z,12.31
2023-04-25T13:20:38.209Z,12.20
2023-04-25T13:23:06.517Z,12.23
2023-04-25T13:25:35.180Z,12.06
2023-04-25T13:28:04.036Z,11.68
2023-04-25T13:30:32.093Z,11.77
2023-04-25T13:33:04.423Z,11.87
2023-04-25T13:35:34.833Z,12.06
2023-04-25T13:38:02.815Z,11.82
2023-04-25T13:40:31.077Z,11.77
2023-04-25T13:42:58.981Z,11.59
2023-04-25T13:45:27.362Z,11.57
2023-04-25T13:47:55.445Z,11.78
2023-04-25T13:50:23.702Z,11.93
2023-04-25T13:52:52.874Z,12.17
2023-04-25T13:55:21.236Z,12.24
2023-04-25T13:57:49.198Z,12.16
2023-04-25T14:00:18.269Z,12.15
2023-04-25T14:05:14.455Z,12.29
2023-04-25T14:07:42.425Z,12.06
2023-04-25T14:10:12.342Z,11.95
2023-04-25T14:12:40.120Z,11.81
2023-04-25T14:15:08.744Z,11.90
2023-04-25T14:17:36.551Z,11.73
2023-04-25T14:20:06.846Z,11.96
2023-04-25T14:22:34.882Z,12.21
2023-04-25T14:25:02.667Z,11.96
2023-04-25T14:27:31.904Z,11.91
2023-04-25T14:29:59.875Z,12.05
2023-04-25T14:32:27.729Z,12.13
2023-04-25T14:34:55.733Z,12.06
2023-04-25T14:37:23.539Z,12.10
2023-04-25T14:39:51.369Z,11.75
2023-04-25T14:42:19.176Z,11.74
2023-04-25T14:44:48.324Z,11.49
2023-04-25T14:47:16.695Z,11.44
2023-04-25T14:49:44.549Z,11.64
2023-04-25T14:52:12.382Z,11.99
2023-04-25T14:54:40.105Z,12.22
2023-04-25T14:57:08.802Z,12.34
2023-04-25T14:59:36.818Z,12.27
2023-04-25T15:02:06.154Z,12.40
2023-04-25T15:04:34.338Z,12.43
2023-04-25T15:07:02.292Z,12.48
2023-04-25T15:09:30.312Z,12.62
2023-04-25T15:11:59.120Z,12.37
2023-04-25T15:14:26.957Z,12.09
2023-04-25T15:16:54.878Z,12.03
2023-04-25T15:19:24.375Z,12.03
2023-04-25T15:21:52.263Z,12.17
2023-04-25T15:24:20.264Z,11.86
2023-04-25T15:26:48.130Z,12.14
2023-04-25T15:29:16.488Z,12.14
2023-04-25T15:31:44.468Z,12.24
2023-04-25T15:34:12.446Z,12.38
2023-04-25T15:36:41.626Z,12.31
2023-04-25T15:39:09.521Z,12.44
2023-04-25T15:41:38.203Z,12.53
2023-04-25T15:44:07.912Z,12.43
2023-04-25T15:46:36.500Z,12.29
2023-04-25T15:49:06.066Z,12.15
2023-04-25T15:51:36.240Z,12.32
2023-04-25T15:54:06.759Z,12.51
2023-04-25T15:56:36.014Z,12.31
2023-04-25T15:59:04.301Z,12.28
2023-04-25T16:01:33.284Z,12.18
2023-04-25T16:04:01.885Z,12.17
2023-04-25T16:06:30.483Z,12.23
2023-04-25T16:08:58.527Z,12.13
2023-04-25T16:11:27.842Z,12.10
2023-04-25T16:13:55.680Z,12.11
2023-04-25T16:16:23.540Z,12.16
2023-04-25T16:18:51.419Z,12.02
2023-04-25T16:22:36.887Z,12.23
2023-04-25T16:25:31.140Z,12.04
2023-04-25T16:28:39.687Z,12.01
2023-04-25T16:31:07.843Z,12.25
2023-04-25T16:33:35.841Z,12.40
2023-04-25T16:36:04.124Z,12.07
2023-04-25T16:38:31.857Z,12.10
2023-04-25T16:40:59.941Z,12.18
2023-04-25T16:43:29.147Z,11.86
2023-04-25T16:45:56.951Z,11.96
2023-04-25T16:48:25.194Z,11.91
2023-04-25T16:50:53.359Z,12.04
2023-04-25T16:53:22.078Z,12.05
2023-04-25T16:55:50.186Z,12.05
2023-04-25T16:58:18.077Z,11.80
2023-04-25T17:00:47.996Z,11.69
2023-04-25T17:03:17.169Z,11.81
2023-04-25T17:05:45.024Z,11.71
2023-04-25T17:08:12.925Z,11.84
2023-04-25T17:10:40.846Z,11.71
2023-04-25T17:13:08.742Z,11.82
2023-04-25T17:15:36.511Z,11.71
2023-04-25T17:18:06.042Z,11.55
2023-04-25T17:20:34.069Z,11.38
2023-04-25T17:23:02.215Z,11.16
2023-04-25T17:25:30.462Z,11.18
2023-04-25T17:27:58.279Z,11.10
2023-04-25T17:30:26.872Z,11.15
2023-04-25T17:32:54.804Z,11.12
2023-04-25T17:35:24.659Z,11.03
2023-04-25T17:37:52.636Z,11.21
2023-04-25T17:40:20.998Z,11.30
2023-04-25T17:42:49.012Z,11.29
2023-04-25T17:45:17.493Z,11.16
2023-04-25T17:47:45.561Z,10.98
2023-04-25T17:50:16.600Z,11.04
2023-04-25T17:52:48.151Z,11.09
2023-04-25T17:55:15.978Z,11.18
2023-04-25T17:57:43.736Z,11.26
2023-04-25T18:00:13.011Z,11.14
2023-04-25T18:02:41.558Z,10.95
2023-04-25T18:05:10.909Z,10.85
2023-04-25T18:07:39.035Z,10.94
2023-04-25T18:10:10.522Z,10.96
2023-04-25T18:12:38.489Z,10.91
2023-04-25T18:15:07.631Z,10.94
2023-04-25T18:17:39.907Z,11.02
2023-04-25T18:20:11.988Z,11.04
2023-04-25T18:22:39.839Z,11.16
2023-04-25T18:25:11.021Z,11.19
2023-04-25T18:27:39.372Z,11.25
2023-04-25T18:30:10.901Z,11.27
2023-04-25T18:32:39.947Z,11.25
2023-04-25T18:35:10.330Z,11.20
2023-04-25T18:37:39.631Z,11.02
2023-04-25T18:40:13.870Z,10.74
2023-04-25T18:42:41.888Z,10.77
2023-04-25T18:45:11.042Z,10.82
2023-04-25T18:47:38.992Z,10.89
2023-04-25T18:50:08.166Z,10.82
2023-04-25T18:52:36.369Z,10.88
2023-04-25T18:55:05.091Z,10.37
2023-04-25T18:57:34.797Z,10.26
2023-04-25T19:00:06.783Z,10.20
2023-04-25T19:02:36.993Z,10.07
2023-04-25T19:05:06.129Z,10.18
2023-04-25T19:07:34.118Z,10.26
2023-04-25T19:10:02.264Z,10.09
2023-04-25T19:12:30.195Z,10.11
2023-04-25T19:14:59.459Z,10.02
2023-04-25T19:17:29.042Z,10.09
2023-04-25T19:19:58.198Z,10.00
2023-04-25T19:22:27.459Z,9.96
2023-04-25T19:25:03.043Z,9.74
2023-04-25T19:27:38.134Z,9.65
2023-04-25T19:30:09.039Z,9.43
2023-04-25T19:32:38.126Z,9.43
2023-04-25T19:35:10.941Z,9.44
2023-04-25T19:37:45.714Z,9.34
2023-04-25T19:40:14.919Z,9.27
2023-04-25T19:42:42.833Z,9.30
2023-04-25T19:45:13.210Z,9.35
2023-04-25T19:47:41.946Z,9.35
2023-04-25T19:50:10.814Z,9.43
2023-04-25T19:52:39.537Z,9.57
2023-04-25T19:55:09.776Z,9.66
2023-04-25T19:57:38.031Z,9.72
2023-04-25T20:00:10.791Z,9.74
2023-04-25T20:02:45.275Z,9.88
2023-04-25T20:05:15.431Z,10.06
2023-04-25T20:07:43.542Z,10.14
2023-04-25T20:10:13.967Z,10.22
2023-04-25T20:12:45.154Z,10.30
2023-04-25T20:15:13.292Z,10.35
2023-04-25T20:17:41.828Z,10.32
2023-04-25T20:20:12.574Z,10.22
2023-04-25T20:22:41.114Z,10.11
2023-04-25T20:25:10.859Z,10.18
2023-04-25T20:27:38.900Z,10.09
2023-04-25T20:30:08.484Z,10.14
2023-04-25T20:32:36.784Z,10.01
2023-04-25T20:35:07.280Z,10.04
2023-04-25T20:37:37.572Z,9.85
2023-04-25T20:40:07.556Z,9.74
2023-04-25T20:42:36.296Z,9.58
2023-04-25T20:45:07.530Z,9.73
2023-04-25T20:47:36.030Z,9.62
2023-04-25T20:50:06.091Z,9.69
2023-04-25T20:52:35.409Z,9.69
2023-04-25T20:55:05.353Z,9.58
2023-04-25T20:57:35.665Z,9.70
2023-04-25T21:00:11.893Z,9.80
2023-04-25T21:02:39.815Z,9.71
2023-04-25T21:05:08.295Z,9.57
2023-04-25T21:07:36.635Z,9.57
2023-04-25T21:10:06.748Z,9.61
2023-04-25T21:12:35.586Z,9.24
2023-04-25T21:15:04.632Z,9.17
2023-04-25T21:17:32.572Z,9.14
2023-04-25T21:20:00.410Z,9.17
2023-04-25T21:22:28.646Z,9.21
2023-04-25T21:24:57.213Z,9.36
2023-04-25T21:27:26.506Z,9.49
2023-04-25T21:29:54.415Z,9.38
2023-04-25T21:32:22.306Z,9.27
2023-04-25T21:34:50.165Z,9.18
2023-04-25T21:37:17.989Z,9.18
2023-04-25T21:39:48.022Z,9.18
2023-04-25T21:42:15.825Z,9.09
2023-04-25T21:44:45.041Z,9.22
2023-04-25T21:47:12.915Z,9.32
2023-04-25T21:49:41.122Z,9.19
2023-04-25T21:52:09.679Z,9.37
2023-04-25T21:54:37.495Z,9.28
2023-04-25T21:57:05.341Z,9.21
2023-04-25T21:59:33.153Z,9.20
2023-04-25T22:02:02.343Z,8.89
2023-04-25T22:04:31.001Z,8.98
2023-04-25T22:06:59.080Z,9.08
2023-04-25T22:09:27.146Z,9.13
2023-04-25T22:11:55.246Z,9.16
2023-04-25T22:14:25.076Z,9.26
2023-04-25T22:16:54.276Z,9.09
2023-04-25T22:19:23.431Z,9.12
2023-04-25T22:21:51.260Z,9.19
2023-04-25T22:24:19.198Z,9.22
2023-04-25T22:26:47.003Z,9.27
2023-04-25T22:29:14.810Z,9.25
2023-04-25T22:31:43.135Z,9.38
2023-04-25T22:34:10.917Z,9.45
2023-04-25T22:36:40.010Z,9.46
2023-04-25T22:39:08.883Z,9.25
2023-04-25T22:41:37.140Z,9.42
2023-04-25T22:44:05.142Z,9.44
2023-04-25T22:46:33.033Z,9.47
2023-04-25T22:49:01.383Z,9.50
2023-04-25T22:51:31.125Z,9.39
2023-04-25T22:54:00.857Z,9.56
2023-04-25T22:56:30.732Z,9.46
2023-04-25T22:58:58.512Z,9.41
2023-04-25T23:01:27.927Z,9.41
2023-04-25T23:03:56.888Z,9.58
2023-04-25T23:06:24.852Z,9.61
2023-04-25T23:08:52.934Z,9.66
2023-04-25T23:11:23.819Z,9.50
2023-04-25T23:13:51.561Z,9.48
2023-04-25T23:16:19.298Z,9.50
2023-04-25T23:18:47.095Z,9.49
2023-04-25T23:21:14.830Z,9.37
2023-04-25T23:23:42.676Z,9.21
2023-04-25T23:26:11.053Z,8.69
2023-04-25T23:28:48.951Z,8.69
2023-04-25T23:31:17.087Z,8.87
2023-04-25T23:33:44.938Z,8.99
2023-04-25T23:36:19.839Z,8.98
2023-04-25T23:38:47.689Z,8.74
2023-04-25T23:41:15.734Z,8.60
2023-04-25T23:43:45.143Z,8.52
2023-04-25T23:46:13.601Z,8.48
2023-04-25T23:48:41.674Z,8.54
2023-04-25T23:51:09.615Z,8.45
2023-04-25T23:53:37.330Z,8.19
2023-04-25T23:56:05.938Z,7.99
2023-04-25T23:58:33.783Z,8.01
